sensor_id;sensor_type;location;lat;lon;timestamp;pressure;altitude;pressure_sealevel;temperature
59339;BMP280;45117;50.960;5.500;2023-09-19T00:01:32;99996.47;;;15.00
59339;BMP280;45117;50.960;5.500;2023-09-19T00:04:01;99977.78;;;14.84
59339;BMP280;45117;50.960;5.500;2023-09-19T00:06:28;99986.09;;;14.90
59339;BMP280;45117;50.960;5.500;2023-09-19T00:08:57;99985.59;;;14.82
59339;BMP280;45117;50.960;5.500;2023-09-19T00:11:36;99976.13;;;14.78
59339;BMP280;45117;50.960;5.500;2023-09-19T00:14:03;99940.69;;;14.45
59339;BMP280;45117;50.960;5.500;2023-09-19T00:16:30;99905.75;;;14.19
59339;BMP280;45117;50.960;5.500;2023-09-19T00:18:57;99974.66;;;14.55
59339;BMP280;45117;50.960;5.500;2023-09-19T00:21:26;100005.72;;;14.81
59339;BMP280;45117;50.960;5.500;2023-09-19T00:23:53;100009.91;;;14.82
59339;BMP280;45117;50.960;5.500;2023-09-19T00:26:20;100000.56;;;14.74
59339;BMP280;45117;50.960;5.500;2023-09-19T00:28:49;100024.75;;;14.78
59339;BMP280;45117;50.960;5.500;2023-09-19T00:31:18;99934.38;;;14.17
59339;BMP280;45117;50.960;5.500;2023-09-19T00:33:45;99982.72;;;14.46
59339;BMP280;45117;50.960;5.500;2023-09-19T00:36:14;100017.53;;;14.75
59339;BMP280;45117;50.960;5.500;2023-09-19T00:38:42;100005.44;;;14.57
59339;BMP280;45117;50.960;5.500;2023-09-19T00:41:09;99965.53;;;14.30
59339;BMP280;45117;50.960;5.500;2023-09-19T00:43:38;99977.13;;;14.40
59339;BMP280;45117;50.960;5.500;2023-09-19T00:46:07;99935.56;;;14.16
59339;BMP280;45117;50.960;5.500;2023-09-19T00:48:40;99988.28;;;14.51
59339;BMP280;45117;50.960;5.500;2023-09-19T00:51:09;99996.69;;;14.53
59339;BMP280;45117;50.960;5.500;2023-09-19T00:53:37;100043.66;;;14.78
59339;BMP280;45117;50.960;5.500;2023-09-19T00:56:06;100050.44;;;14.82
59339;BMP280;45117;50.960;5.500;2023-09-19T00:58:33;100046.53;;;14.83
59339;BMP280;45117;50.960;5.500;2023-09-19T01:01:01;100046.06;;;14.76
59339;BMP280;45117;50.960;5.500;2023-09-19T01:03:32;100053.91;;;14.83
59339;BMP280;45117;50.960;5.500;2023-09-19T01:05:59;100048.13;;;14.71
59339;BMP280;45117;50.960;5.500;2023-09-19T01:08:26;100066.47;;;14.77
59339;BMP280;45117;50.960;5.500;2023-09-19T01:10:59;100073.28;;;14.81
59339;BMP280;45117;50.960;5.500;2023-09-19T01:13:35;100071.00;;;14.80
59339;BMP280;45117;50.960;5.500;2023-09-19T01:16:09;100069.19;;;14.77
59339;BMP280;45117;50.960;5.500;2023-09-19T01:18:43;100088.09;;;14.77
59339;BMP280;45117;50.960;5.500;2023-09-19T01:21:21;100059.91;;;14.56
59339;BMP280;45117;50.960;5.500;2023-09-19T01:24:15;100060.19;;;14.58
59339;BMP280;45117;50.960;5.500;2023-09-19T01:27:00;100058.91;;;14.62
59339;BMP280;45117;50.960;5.500;2023-09-19T01:29:37;100085.53;;;14.73
59339;BMP280;45117;50.960;5.500;2023-09-19T01:32:08;100024.31;;;14.26
59339;BMP280;45117;50.960;5.500;2023-09-19T01:34:46;100086.53;;;14.66
59339;BMP280;45117;50.960;5.500;2023-09-19T01:37:16;100062.50;;;14.47
59339;BMP280;45117;50.960;5.500;2023-09-19T01:39:46;100098.09;;;14.67
59339;BMP280;45117;50.960;5.500;2023-09-19T01:42:24;100043.03;;;14.30
59339;BMP280;45117;50.960;5.500;2023-09-19T01:44:59;100096.28;;;14.64
59339;BMP280;45117;50.960;5.500;2023-09-19T01:47:33;100088.09;;;14.55
59339;BMP280;45117;50.960;5.500;2023-09-19T01:50:10;100067.56;;;14.35
59339;BMP280;45117;50.960;5.500;2023-09-19T01:52:42;100095.44;;;14.54
59339;BMP280;45117;50.960;5.500;2023-09-19T01:55:13;100091.81;;;14.48
59339;BMP280;45117;50.960;5.500;2023-09-19T01:57:49;100085.03;;;14.43
59339;BMP280;45117;50.960;5.500;2023-09-19T02:00:20;100098.41;;;14.47
59339;BMP280;45117;50.960;5.500;2023-09-19T02:02:50;100085.97;;;14.50
59339;BMP280;45117;50.960;5.500;2023-09-19T02:05:25;100079.81;;;14.49
59339;BMP280;45117;50.960;5.500;2023-09-19T02:07:52;100092.13;;;14.50
59339;BMP280;45117;50.960;5.500;2023-09-19T02:10:19;100033.31;;;14.10
59339;BMP280;45117;50.960;5.500;2023-09-19T02:12:46;100080.47;;;14.40
59339;BMP280;45117;50.960;5.500;2023-09-19T02:15:13;100074.47;;;14.36
59339;BMP280;45117;50.960;5.500;2023-09-19T02:17:41;100075.97;;;14.37
59339;BMP280;45117;50.960;5.500;2023-09-19T02:20:10;100083.09;;;14.44
59339;BMP280;45117;50.960;5.500;2023-09-19T02:22:40;100075.78;;;14.32
59339;BMP280;45117;50.960;5.500;2023-09-19T02:25:07;100088.41;;;14.35
59339;BMP280;45117;50.960;5.500;2023-09-19T02:27:35;99998.34;;;13.72
59339;BMP280;45117;50.960;5.500;2023-09-19T02:30:03;100006.63;;;13.78
59339;BMP280;45117;50.960;5.500;2023-09-19T02:32:31;100092.03;;;14.41
59339;BMP280;45117;50.960;5.500;2023-09-19T02:35:00;100033.34;;;13.98
59339;BMP280;45117;50.960;5.500;2023-09-19T02:37:28;100087.03;;;14.30
59339;BMP280;45117;50.960;5.500;2023-09-19T02:39:55;100042.66;;;13.97
59339;BMP280;45117;50.960;5.500;2023-09-19T02:42:22;100043.63;;;13.90
59339;BMP280;45117;50.960;5.500;2023-09-19T02:44:48;100032.41;;;13.79
59339;BMP280;45117;50.960;5.500;2023-09-19T02:47:15;100094.72;;;14.19
59339;BMP280;45117;50.960;5.500;2023-09-19T02:49:41;100013.56;;;13.66
59339;BMP280;45117;50.960;5.500;2023-09-19T02:52:08;100029.41;;;13.77
59339;BMP280;45117;50.960;5.500;2023-09-19T02:54:37;100088.63;;;14.28
59339;BMP280;45117;50.960;5.500;2023-09-19T02:57:04;100064.72;;;14.04
59339;BMP280;45117;50.960;5.500;2023-09-19T02:59:32;100026.25;;;13.78
59339;BMP280;45117;50.960;5.500;2023-09-19T03:01:59;100094.38;;;14.17
59339;BMP280;45117;50.960;5.500;2023-09-19T03:04:26;100110.03;;;14.22
59339;BMP280;45117;50.960;5.500;2023-09-19T03:06:53;100105.41;;;14.23
59339;BMP280;45117;50.960;5.500;2023-09-19T03:09:23;100116.63;;;14.21
59339;BMP280;45117;50.960;5.500;2023-09-19T03:11:51;100064.75;;;13.92
59339;BMP280;45117;50.960;5.500;2023-09-19T03:14:19;100053.91;;;13.82
59339;BMP280;45117;50.960;5.500;2023-09-19T03:16:46;100102.91;;;14.16
59339;BMP280;45117;50.960;5.500;2023-09-19T03:19:12;100107.88;;;14.17
59339;BMP280;45117;50.960;5.500;2023-09-19T03:21:40;100060.03;;;13.83
59339;BMP280;45117;50.960;5.500;2023-09-19T03:24:07;100096.63;;;13.97
59339;BMP280;45117;50.960;5.500;2023-09-19T03:26:33;100122.28;;;14.14
59339;BMP280;45117;50.960;5.500;2023-09-19T03:29:07;100113.72;;;14.16
59339;BMP280;45117;50.960;5.500;2023-09-19T03:31:35;100120.00;;;14.12
59339;BMP280;45117;50.960;5.500;2023-09-19T03:34:03;100111.03;;;14.16
59339;BMP280;45117;50.960;5.500;2023-09-19T03:36:30;100106.94;;;14.11
59339;BMP280;45117;50.960;5.500;2023-09-19T03:38:57;100061.44;;;13.75
59339;BMP280;45117;50.960;5.500;2023-09-19T03:41:23;100037.00;;;13.57
59339;BMP280;45117;50.960;5.500;2023-09-19T03:43:50;100037.84;;;13.53
59339;BMP280;45117;50.960;5.500;2023-09-19T03:46:18;100007.91;;;13.39
59339;BMP280;45117;50.960;5.500;2023-09-19T03:48:45;100048.34;;;13.64
59339;BMP280;45117;50.960;5.500;2023-09-19T03:51:11;100116.13;;;14.13
59339;BMP280;45117;50.960;5.500;2023-09-19T03:53:38;100098.66;;;14.05
59339;BMP280;45117;50.960;5.500;2023-09-19T03:56:03;100109.06;;;14.16
59339;BMP280;45117;50.960;5.500;2023-09-19T03:58:30;100091.88;;;14.01
59339;BMP280;45117;50.960;5.500;2023-09-19T04:00:57;100040.31;;;13.73
59339;BMP280;45117;50.960;5.500;2023-09-19T04:03:26;100072.84;;;13.92
59339;BMP280;45117;50.960;5.500;2023-09-19T04:06:00;100088.47;;;14.09
59339;BMP280;45117;50.960;5.500;2023-09-19T04:08:27;100102.06;;;14.19
59339;BMP280;45117;50.960;5.500;2023-09-19T04:10:53;100040.84;;;13.81
59339;BMP280;45117;50.960;5.500;2023-09-19T04:13:20;100078.44;;;14.10
59339;BMP280;45117;50.960;5.500;2023-09-19T04:15:47;100091.16;;;14.22
59339;BMP280;45117;50.960;5.500;2023-09-19T04:18:14;100057.00;;;13.94
59339;BMP280;45117;50.960;5.500;2023-09-19T04:20:48;100101.94;;;14.22
59339;BMP280;45117;50.960;5.500;2023-09-19T04:23:15;100053.88;;;13.95
59339;BMP280;45117;50.960;5.500;2023-09-19T04:25:43;100113.41;;;14.26
59339;BMP280;45117;50.960;5.500;2023-09-19T04:28:10;100051.94;;;13.83
59339;BMP280;45117;50.960;5.500;2023-09-19T04:30:37;100083.78;;;14.01
59339;BMP280;45117;50.960;5.500;2023-09-19T04:33:05;100092.81;;;14.07
59339;BMP280;45117;50.960;5.500;2023-09-19T04:35:32;100124.81;;;14.30
59339;BMP280;45117;50.960;5.500;2023-09-19T04:38:01;100067.59;;;13.88
59339;BMP280;45117;50.960;5.500;2023-09-19T04:40:28;100104.00;;;14.18
59339;BMP280;45117;50.960;5.500;2023-09-19T04:42:56;100044.19;;;13.72
59339;BMP280;45117;50.960;5.500;2023-09-19T04:45:23;100127.53;;;14.30
59339;BMP280;45117;50.960;5.500;2023-09-19T04:47:49;100083.00;;;14.00
59339;BMP280;45117;50.960;5.500;2023-09-19T04:50:15;100134.97;;;14.39
59339;BMP280;45117;50.960;5.500;2023-09-19T04:52:43;100091.94;;;14.10
59339;BMP280;45117;50.960;5.500;2023-09-19T04:55:12;100057.34;;;13.83
59339;BMP280;45117;50.960;5.500;2023-09-19T04:57:42;100083.00;;;13.88
59339;BMP280;45117;50.960;5.500;2023-09-19T05:00:11;100101.56;;;13.98
59339;BMP280;45117;50.960;5.500;2023-09-19T05:02:38;100102.53;;;13.92
59339;BMP280;45117;50.960;5.500;2023-09-19T05:05:07;100158.75;;;14.19
59339;BMP280;45117;50.960;5.500;2023-09-19T05:07:33;100162.78;;;14.14
59339;BMP280;45117;50.960;5.500;2023-09-19T05:10:00;100142.50;;;13.97
59339;BMP280;45117;50.960;5.500;2023-09-19T05:12:32;100171.50;;;14.18
59339;BMP280;45117;50.960;5.500;2023-09-19T05:14:59;100165.47;;;14.14
59339;BMP280;45117;50.960;5.500;2023-09-19T05:17:26;100175.28;;;14.21
59339;BMP280;45117;50.960;5.500;2023-09-19T05:19:53;100169.13;;;14.20
59339;BMP280;45117;50.960;5.500;2023-09-19T05:22:19;100162.13;;;14.10
59339;BMP280;45117;50.960;5.500;2023-09-19T05:24:46;100178.28;;;14.23
59339;BMP280;45117;50.960;5.500;2023-09-19T05:27:13;100138.59;;;13.98
59339;BMP280;45117;50.960;5.500;2023-09-19T05:29:43;100138.50;;;13.89
59339;BMP280;45117;50.960;5.500;2023-09-19T05:32:10;100158.69;;;13.97
59339;BMP280;45117;50.960;5.500;2023-09-19T05:34:37;100192.00;;;14.16
59339;BMP280;45117;50.960;5.500;2023-09-19T05:37:06;100127.19;;;13.81
59339;BMP280;45117;50.960;5.500;2023-09-19T05:39:35;100073.78;;;13.38
59339;BMP280;45117;50.960;5.500;2023-09-19T05:42:03;100102.91;;;13.56
59339;BMP280;45117;50.960;5.500;2023-09-19T05:44:29;100090.06;;;13.47
59339;BMP280;45117;50.960;5.500;2023-09-19T05:47:07;100125.69;;;13.67
59339;BMP280;45117;50.960;5.500;2023-09-19T05:49:34;100173.69;;;13.98
59339;BMP280;45117;50.960;5.500;2023-09-19T05:52:04;100118.09;;;13.62
59339;BMP280;45117;50.960;5.500;2023-09-19T05:54:30;100202.72;;;14.19
59339;BMP280;45117;50.960;5.500;2023-09-19T05:56:58;100168.28;;;13.98
59339;BMP280;45117;50.960;5.500;2023-09-19T05:59:25;100086.09;;;13.51
59339;BMP280;45117;50.960;5.500;2023-09-19T06:01:51;100155.66;;;14.07
59339;BMP280;45117;50.960;5.500;2023-09-19T06:04:19;100133.63;;;13.96
59339;BMP280;45117;50.960;5.500;2023-09-19T06:06:46;100102.25;;;13.77
59339;BMP280;45117;50.960;5.500;2023-09-19T06:09:14;100128.66;;;14.07
59339;BMP280;45117;50.960;5.500;2023-09-19T06:11:41;100139.50;;;14.29
59339;BMP280;45117;50.960;5.500;2023-09-19T06:14:08;100201.38;;;14.71
59339;BMP280;45117;50.960;5.500;2023-09-19T06:16:35;100200.00;;;14.88
59339;BMP280;45117;50.960;5.500;2023-09-19T06:19:03;100142.00;;;14.80
59339;BMP280;45117;50.960;5.500;2023-09-19T06:21:33;100199.38;;;15.28
59339;BMP280;45117;50.960;5.500;2023-09-19T06:23:59;100155.94;;;15.00
59339;BMP280;45117;50.960;5.500;2023-09-19T06:26:26;100174.31;;;15.27
59339;BMP280;45117;50.960;5.500;2023-09-19T06:28:53;100190.63;;;15.46
59339;BMP280;45117;50.960;5.500;2023-09-19T06:31:21;100199.47;;;15.46
59339;BMP280;45117;50.960;5.500;2023-09-19T06:33:48;100202.84;;;15.59
59339;BMP280;45117;50.960;5.500;2023-09-19T06:36:15;100205.66;;;15.47
59339;BMP280;45117;50.960;5.500;2023-09-19T06:38:43;100225.53;;;15.53
59339;BMP280;45117;50.960;5.500;2023-09-19T06:41:12;100158.28;;;15.11
59339;BMP280;45117;50.960;5.500;2023-09-19T06:43:42;100169.81;;;15.33
59339;BMP280;45117;50.960;5.500;2023-09-19T06:46:09;100219.91;;;15.78
59339;BMP280;45117;50.960;5.500;2023-09-19T06:48:38;100179.41;;;15.56
59339;BMP280;45117;50.960;5.500;2023-09-19T06:51:04;100180.22;;;15.75
59339;BMP280;45117;50.960;5.500;2023-09-19T06:53:31;100184.34;;;15.98
59339;BMP280;45117;50.960;5.500;2023-09-19T06:56:01;100200.34;;;16.33
59339;BMP280;45117;50.960;5.500;2023-09-19T06:58:31;100202.19;;;16.54
59339;BMP280;45117;50.960;5.500;2023-09-19T07:00:58;100201.56;;;16.59
59339;BMP280;45117;50.960;5.500;2023-09-19T07:03:24;100200.06;;;16.76
59339;BMP280;45117;50.960;5.500;2023-09-19T07:05:54;100228.66;;;17.05
59339;BMP280;45117;50.960;5.500;2023-09-19T07:08:21;100237.69;;;17.20
59339;BMP280;45117;50.960;5.500;2023-09-19T07:10:48;100228.31;;;17.30
59339;BMP280;45117;50.960;5.500;2023-09-19T07:13:16;100233.09;;;17.77
59339;BMP280;45117;50.960;5.500;2023-09-19T07:15:43;100226.34;;;17.73
59339;BMP280;45117;50.960;5.500;2023-09-19T07:18:13;100229.16;;;17.78
59339;BMP280;45117;50.960;5.500;2023-09-19T07:20:40;100232.56;;;17.97
59339;BMP280;45117;50.960;5.500;2023-09-19T07:23:10;100236.72;;;17.84
59339;BMP280;45117;50.960;5.500;2023-09-19T07:25:39;100238.50;;;18.10
59339;BMP280;45117;50.960;5.500;2023-09-19T07:28:06;100207.03;;;18.19
59339;BMP280;45117;50.960;5.500;2023-09-19T07:30:36;100235.72;;;18.44
59339;BMP280;45117;50.960;5.500;2023-09-19T07:33:03;100247.19;;;18.62
59339;BMP280;45117;50.960;5.500;2023-09-19T07:35:30;100220.69;;;18.09
59339;BMP280;45117;50.960;5.500;2023-09-19T07:37:57;100209.66;;;17.89
59339;BMP280;45117;50.960;5.500;2023-09-19T07:40:27;100215.38;;;18.15
59339;BMP280;45117;50.960;5.500;2023-09-19T07:42:54;100242.78;;;18.26
59339;BMP280;45117;50.960;5.500;2023-09-19T07:45:21;100244.56;;;18.29
59339;BMP280;45117;50.960;5.500;2023-09-19T07:47:50;100235.88;;;18.40
59339;BMP280;45117;50.960;5.500;2023-09-19T07:50:17;100239.66;;;18.19
59339;BMP280;45117;50.960;5.500;2023-09-19T07:52:44;100238.03;;;18.36
59339;BMP280;45117;50.960;5.500;2023-09-19T07:55:11;100235.13;;;18.16
59339;BMP280;45117;50.960;5.500;2023-09-19T07:57:41;100187.97;;;17.80
59339;BMP280;45117;50.960;5.500;2023-09-19T08:00:09;100203.06;;;17.81
59339;BMP280;45117;50.960;5.500;2023-09-19T08:02:37;100201.50;;;17.89
59339;BMP280;45117;50.960;5.500;2023-09-19T08:05:05;100202.22;;;18.37
59339;BMP280;45117;50.960;5.500;2023-09-19T08:07:35;100199.53;;;18.14
59339;BMP280;45117;50.960;5.500;2023-09-19T08:10:02;100243.19;;;18.34
59339;BMP280;45117;50.960;5.500;2023-09-19T08:12:29;100201.09;;;18.05
59339;BMP280;45117;50.960;5.500;2023-09-19T08:14:56;100216.00;;;18.34
59339;BMP280;45117;50.960;5.500;2023-09-19T08:17:23;100249.00;;;18.95
59339;BMP280;45117;50.960;5.500;2023-09-19T08:19:49;100249.47;;;19.08
59339;BMP280;45117;50.960;5.500;2023-09-19T08:22:19;100254.94;;;19.23
59339;BMP280;45117;50.960;5.500;2023-09-19T08:24:46;100256.34;;;19.18
59339;BMP280;45117;50.960;5.500;2023-09-19T08:27:13;100245.72;;;19.35
59339;BMP280;45117;50.960;5.500;2023-09-19T08:29:40;100252.09;;;19.32
59339;BMP280;45117;50.960;5.500;2023-09-19T08:32:07;100262.34;;;19.37
59339;BMP280;45117;50.960;5.500;2023-09-19T08:34:34;100259.53;;;19.31
59339;BMP280;45117;50.960;5.500;2023-09-19T08:37:03;100268.34;;;19.12
59339;BMP280;45117;50.960;5.500;2023-09-19T08:39:31;100265.63;;;19.26
59339;BMP280;45117;50.960;5.500;2023-09-19T08:42:01;100254.84;;;19.47
59339;BMP280;45117;50.960;5.500;2023-09-19T08:44:28;100252.34;;;19.49
59339;BMP280;45117;50.960;5.500;2023-09-19T08:47:00;100265.00;;;19.66
59339;BMP280;45117;50.960;5.500;2023-09-19T08:49:33;100230.38;;;19.52
59339;BMP280;45117;50.960;5.500;2023-09-19T08:52:07;100257.44;;;19.56
59339;BMP280;45117;50.960;5.500;2023-09-19T08:54:40;100240.13;;;19.59
59339;BMP280;45117;50.960;5.500;2023-09-19T08:57:09;100243.75;;;19.71
59339;BMP280;45117;50.960;5.500;2023-09-19T08:59:37;100248.28;;;19.59
59339;BMP280;45117;50.960;5.500;2023-09-19T09:02:11;100193.38;;;19.11
59339;BMP280;45117;50.960;5.500;2023-09-19T09:04:39;100253.09;;;19.64
59339;BMP280;45117;50.960;5.500;2023-09-19T09:07:10;100212.25;;;19.49
59339;BMP280;45117;50.960;5.500;2023-09-19T09:09:38;100238.09;;;19.74
59339;BMP280;45117;50.960;5.500;2023-09-19T09:12:08;100246.03;;;19.57
59339;BMP280;45117;50.960;5.500;2023-09-19T09:14:37;100217.28;;;19.91
59339;BMP280;45117;50.960;5.500;2023-09-19T09:17:04;100228.06;;;20.21
59339;BMP280;45117;50.960;5.500;2023-09-19T09:19:31;100240.78;;;20.29
59339;BMP280;45117;50.960;5.500;2023-09-19T09:22:08;100246.56;;;19.96
59339;BMP280;45117;50.960;5.500;2023-09-19T09:24:35;100231.41;;;20.10
59339;BMP280;45117;50.960;5.500;2023-09-19T09:27:05;100238.00;;;20.24
59339;BMP280;45117;50.960;5.500;2023-09-19T09:29:41;100255.81;;;20.65
59339;BMP280;45117;50.960;5.500;2023-09-19T09:32:22;100250.97;;;20.81
59339;BMP280;45117;50.960;5.500;2023-09-19T09:34:52;100260.34;;;21.06
59339;BMP280;45117;50.960;5.500;2023-09-19T09:37:19;100255.06;;;20.65
59339;BMP280;45117;50.960;5.500;2023-09-19T09:39:51;100184.38;;;20.41
59339;BMP280;45117;50.960;5.500;2023-09-19T09:42:31;100227.78;;;20.65
59339;BMP280;45117;50.960;5.500;2023-09-19T09:45:13;100220.53;;;20.88
59339;BMP280;45117;50.960;5.500;2023-09-19T09:47:44;100244.50;;;21.04
59339;BMP280;45117;50.960;5.500;2023-09-19T09:50:26;100237.81;;;20.79
59339;BMP280;45117;50.960;5.500;2023-09-19T09:53:02;100232.59;;;20.76
59339;BMP280;45117;50.960;5.500;2023-09-19T09:55:57;100244.66;;;20.43
59339;BMP280;45117;50.960;5.500;2023-09-19T09:58:26;100233.22;;;20.39
59339;BMP280;45117;50.960;5.500;2023-09-19T10:00:55;100233.97;;;20.65
59339;BMP280;45117;50.960;5.500;2023-09-19T10:03:31;100202.75;;;20.20
59339;BMP280;45117;50.960;5.500;2023-09-19T10:06:00;100198.22;;;20.12
59339;BMP280;45117;50.960;5.500;2023-09-19T10:08:34;100249.00;;;20.55
59339;BMP280;45117;50.960;5.500;2023-09-19T10:11:15;100237.38;;;20.35
59339;BMP280;45117;50.960;5.500;2023-09-19T10:13:44;100234.81;;;20.51
59339;BMP280;45117;50.960;5.500;2023-09-19T10:16:13;100231.31;;;20.25
59339;BMP280;45117;50.960;5.500;2023-09-19T10:18:41;100230.94;;;20.12
59339;BMP280;45117;50.960;5.500;2023-09-19T10:21:09;100216.59;;;20.17
59339;BMP280;45117;50.960;5.500;2023-09-19T10:23:37;100217.69;;;20.25
59339;BMP280;45117;50.960;5.500;2023-09-19T10:26:05;100215.69;;;20.46
59339;BMP280;45117;50.960;5.500;2023-09-19T10:28:35;100224.94;;;20.80
59339;BMP280;45117;50.960;5.500;2023-09-19T10:31:05;100173.41;;;20.61
59339;BMP280;45117;50.960;5.500;2023-09-19T10:33:36;100229.09;;;20.75
59339;BMP280;45117;50.960;5.500;2023-09-19T10:36:05;100215.19;;;20.47
59339;BMP280;45117;50.960;5.500;2023-09-19T10:38:33;100193.16;;;20.05
59339;BMP280;45117;50.960;5.500;2023-09-19T10:41:01;100235.16;;;20.59
59339;BMP280;45117;50.960;5.500;2023-09-19T10:43:30;100220.38;;;20.71
59339;BMP280;45117;50.960;5.500;2023-09-19T10:46:01;100210.22;;;20.46
59339;BMP280;45117;50.960;5.500;2023-09-19T10:48:30;100195.25;;;20.61
59339;BMP280;45117;50.960;5.500;2023-09-19T10:51:03;100235.72;;;21.26
59339;BMP280;45117;50.960;5.500;2023-09-19T10:53:41;100226.22;;;21.53
59339;BMP280;45117;50.960;5.500;2023-09-19T10:56:09;100242.69;;;21.75
59339;BMP280;45117;50.960;5.500;2023-09-19T10:58:42;100231.91;;;21.55
59339;BMP280;45117;50.960;5.500;2023-09-19T11:01:10;100235.78;;;21.37
59339;BMP280;45117;50.960;5.500;2023-09-19T11:03:41;100222.47;;;21.56
59339;BMP280;45117;50.960;5.500;2023-09-19T11:06:11;100240.28;;;21.88
59339;BMP280;45117;50.960;5.500;2023-09-19T11:08:59;100237.34;;;21.98
59339;BMP280;45117;50.960;5.500;2023-09-19T11:11:49;100235.38;;;22.04
59339;BMP280;45117;50.960;5.500;2023-09-19T11:14:41;100225.22;;;22.26
59339;BMP280;45117;50.960;5.500;2023-09-19T11:17:40;100224.28;;;22.41
59339;BMP280;45117;50.960;5.500;2023-09-19T11:20:19;100233.78;;;21.80
59339;BMP280;45117;50.960;5.500;2023-09-19T11:23:21;100223.78;;;22.37
59339;BMP280;45117;50.960;5.500;2023-09-19T11:25:50;100237.00;;;22.66
59339;BMP280;45117;50.960;5.500;2023-09-19T11:28:31;100212.28;;;22.27
59339;BMP280;45117;50.960;5.500;2023-09-19T11:30:58;100219.00;;;22.26
59339;BMP280;45117;50.960;5.500;2023-09-19T11:33:25;100215.59;;;22.53
59339;BMP280;45117;50.960;5.500;2023-09-19T11:36:04;100204.91;;;22.44
59339;BMP280;45117;50.960;5.500;2023-09-19T11:38:59;100215.75;;;22.11
59339;BMP280;45117;50.960;5.500;2023-09-19T11:41:36;100212.06;;;22.25
59339;BMP280;45117;50.960;5.500;2023-09-19T11:44:33;100195.09;;;22.04
59339;BMP280;45117;50.960;5.500;2023-09-19T11:47:04;100185.44;;;22.20
59339;BMP280;45117;50.960;5.500;2023-09-19T11:49:32;100203.88;;;22.25
59339;BMP280;45117;50.960;5.500;2023-09-19T11:52:04;100152.59;;;22.03
59339;BMP280;45117;50.960;5.500;2023-09-19T11:54:33;100214.28;;;22.21
59339;BMP280;45117;50.960;5.500;2023-09-19T11:57:05;100148.00;;;21.72
59339;BMP280;45117;50.960;5.500;2023-09-19T11:59:32;100200.69;;;22.82
59339;BMP280;45117;50.960;5.500;2023-09-19T12:02:01;100195.81;;;21.93
59339;BMP280;45117;50.960;5.500;2023-09-19T12:04:34;100203.59;;;22.23
59339;BMP280;45117;50.960;5.500;2023-09-19T12:07:05;100218.38;;;21.83
59339;BMP280;45117;50.960;5.500;2023-09-19T12:09:39;100145.63;;;22.02
59339;BMP280;45117;50.960;5.500;2023-09-19T12:12:06;100158.53;;;21.90
59339;BMP280;45117;50.960;5.500;2023-09-19T12:14:34;100109.81;;;21.94
59339;BMP280;45117;50.960;5.500;2023-09-19T12:17:01;100173.47;;;22.06
59339;BMP280;45117;50.960;5.500;2023-09-19T12:19:28;100180.50;;;22.52
59339;BMP280;45117;50.960;5.500;2023-09-19T12:21:59;100185.22;;;22.62
59339;BMP280;45117;50.960;5.500;2023-09-19T12:24:52;100171.28;;;22.33
59339;BMP280;45117;50.960;5.500;2023-09-19T12:27:19;100162.78;;;21.43
59339;BMP280;45117;50.960;5.500;2023-09-19T12:29:49;100170.88;;;21.75
59339;BMP280;45117;50.960;5.500;2023-09-19T12:32:33;100174.66;;;21.77
59339;BMP280;45117;50.960;5.500;2023-09-19T12:35:00;100169.47;;;21.96
59339;BMP280;45117;50.960;5.500;2023-09-19T12:37:33;100118.97;;;21.69
59339;BMP280;45117;50.960;5.500;2023-09-19T12:40:09;100132.06;;;21.48
59339;BMP280;45117;50.960;5.500;2023-09-19T12:42:43;100150.06;;;21.23
59339;BMP280;45117;50.960;5.500;2023-09-19T12:45:10;100175.09;;;21.65
59339;BMP280;45117;50.960;5.500;2023-09-19T12:51:18;100186.06;;;21.70
59339;BMP280;45117;50.960;5.500;2023-09-19T12:53:57;100086.31;;;20.89
59339;BMP280;45117;50.960;5.500;2023-09-19T12:56:43;100156.94;;;21.13
59339;BMP280;45117;50.960;5.500;2023-09-19T12:59:16;100173.19;;;21.39
59339;BMP280;45117;50.960;5.500;2023-09-19T13:01:43;100121.63;;;20.67
59339;BMP280;45117;50.960;5.500;2023-09-19T13:04:13;100165.16;;;20.82
59339;BMP280;45117;50.960;5.500;2023-09-19T13:06:43;100107.03;;;20.13
59339;BMP280;45117;50.960;5.500;2023-09-19T13:09:11;100189.53;;;20.59
59339;BMP280;45117;50.960;5.500;2023-09-19T13:11:39;100190.13;;;20.43
59339;BMP280;45117;50.960;5.500;2023-09-19T13:14:27;100138.72;;;20.10
59339;BMP280;45117;50.960;5.500;2023-09-19T13:17:01;100097.28;;;19.80
59339;BMP280;45117;50.960;5.500;2023-09-19T13:19:38;100175.25;;;20.44
59339;BMP280;45117;50.960;5.500;2023-09-19T13:22:38;100162.09;;;20.43
59339;BMP280;45117;50.960;5.500;2023-09-19T13:25:06;100141.06;;;20.23
59339;BMP280;45117;50.960;5.500;2023-09-19T13:27:33;100176.22;;;20.41
59339;BMP280;45117;50.960;5.500;2023-09-19T13:33:20;100175.66;;;20.63
59339;BMP280;45117;50.960;5.500;2023-09-19T13:35:47;100127.97;;;20.27
59339;BMP280;45117;50.960;5.500;2023-09-19T13:38:17;100154.59;;;20.63
59339;BMP280;45117;50.960;5.500;2023-09-19T13:40:47;100169.94;;;20.92
59339;BMP280;45117;50.960;5.500;2023-09-19T13:43:14;100174.63;;;20.86
59339;BMP280;45117;50.960;5.500;2023-09-19T13:45:45;100165.91;;;20.82
59339;BMP280;45117;50.960;5.500;2023-09-19T13:48:12;100119.47;;;20.45
59339;BMP280;45117;50.960;5.500;2023-09-19T13:50:40;100176.91;;;20.93
59339;BMP280;45117;50.960;5.500;2023-09-19T13:53:07;100166.22;;;20.90
59339;BMP280;45117;50.960;5.500;2023-09-19T13:55:34;100167.63;;;20.80
59339;BMP280;45117;50.960;5.500;2023-09-19T13:58:01;100179.69;;;20.99
59339;BMP280;45117;50.960;5.500;2023-09-19T14:00:27;100161.53;;;20.96
59339;BMP280;45117;50.960;5.500;2023-09-19T14:02:55;100163.84;;;21.09
59339;BMP280;45117;50.960;5.500;2023-09-19T14:05:22;100174.97;;;21.00
59339;BMP280;45117;50.960;5.500;2023-09-19T14:07:52;100170.88;;;21.21
59339;BMP280;45117;50.960;5.500;2023-09-19T14:10:21;100177.72;;;21.05
59339;BMP280;45117;50.960;5.500;2023-09-19T14:12:48;100124.53;;;20.58
59339;BMP280;45117;50.960;5.500;2023-09-19T14:15:14;100142.78;;;20.46
59339;BMP280;45117;50.960;5.500;2023-09-19T14:17:41;100164.88;;;20.48
59339;BMP280;45117;50.960;5.500;2023-09-19T14:20:11;100084.75;;;19.68